createdAt,value
2023-04-04T00:00:16.603Z,3.03
2023-04-04T00:02:43.230Z,2.13
2023-04-04T00:05:09.875Z,2.55
2023-04-04T00:07:36.519Z,1.92
2023-04-04T00:10:03.235Z,2.20
2023-04-04T00:12:30.088Z,2.33
2023-04-04T00:14:57.522Z,2.30
2023-04-04T00:17:24.314Z,2.35
2023-04-04T00:19:50.871Z,2.20
2023-04-04T00:22:19.068Z,3.28
2023-04-04T00:24:45.660Z,1.90
2023-04-04T00:27:12.233Z,1.70
2023-04-04T00:29:38.882Z,2.60
2023-04-04T00:32:05.627Z,1.73
2023-04-04T00:34:32.384Z,1.90
2023-04-04T00:36:59.015Z,2.85
2023-04-04T00:39:26.598Z,2.30
2023-04-04T00:41:53.302Z,1.83
2023-04-04T00:44:20.105Z,1.95
2023-04-04T00:46:46.746Z,2.22
2023-04-04T00:49:13.323Z,2.40
2023-04-04T00:51:39.932Z,2.00
2023-04-04T00:54:06.650Z,2.25
2023-04-04T00:56:36.254Z,2.83
2023-04-04T00:59:02.995Z,2.63
2023-04-04T01:01:31.596Z,2.25
2023-04-04T01:03:58.764Z,2.50
2023-04-04T01:06:26.528Z,3.95
2023-04-04T01:08:54.205Z,2.20
2023-04-04T01:11:21.315Z,3.10
2023-04-04T01:13:48.329Z,2.25
2023-04-04T01:16:16.874Z,2.72
2023-04-04T01:18:43.849Z,3.42
2023-04-04T01:21:12.375Z,3.03
2023-04-04T01:24:01.226Z,2.53
2023-04-04T01:26:51.433Z,2.38
2023-04-04T01:29:18.073Z,2.38
2023-04-04T01:31:54.302Z,3.03
2023-04-04T01:34:36.653Z,1.95
2023-04-04T01:37:07.850Z,2.70
2023-04-04T01:39:49.458Z,2.22
2023-04-04T01:42:17.320Z,2.10
2023-04-04T01:44:46.654Z,2.42
2023-04-04T01:47:14.204Z,2.67
2023-04-04T01:49:41.058Z,2.08
2023-04-04T01:52:09.459Z,2.85
2023-04-04T01:54:37.218Z,3.58
2023-04-04T01:57:03.909Z,2.50
2023-04-04T01:59:30.659Z,2.78
2023-04-04T02:01:57.775Z,1.98
2023-04-04T02:04:25.038Z,2.72
2023-04-04T02:06:52.687Z,2.17
2023-04-04T02:09:19.426Z,2.47
2023-04-04T02:11:46.838Z,1.92
2023-04-04T02:14:13.532Z,3.17
2023-04-04T02:16:40.429Z,2.00
2023-04-04T02:19:06.999Z,1.60
2023-04-04T02:21:36.904Z,2.42
2023-04-04T02:24:03.572Z,2.05
2023-04-04T02:26:30.513Z,2.75
2023-04-04T02:28:58.372Z,2.55
2023-04-04T02:31:24.983Z,1.95
2023-04-04T02:33:51.614Z,1.95
2023-04-04T02:36:20.041Z,1.90
2023-04-04T02:38:48.735Z,2.67
2023-04-04T02:41:15.508Z,2.65
2023-04-04T02:43:42.139Z,2.47
2023-04-04T02:46:20.442Z,2.42
2023-04-04T02:48:49.470Z,1.38
2023-04-04T02:51:16.160Z,1.95
2023-04-04T02:53:42.798Z,3.15
2023-04-04T02:56:26.950Z,2.05
2023-04-04T02:58:54.318Z,2.47
2023-04-04T03:01:21.180Z,2.28
2023-04-04T03:03:47.996Z,2.38
2023-04-04T03:06:15.667Z,3.45
2023-04-04T03:08:42.287Z,2.78
2023-04-04T03:11:08.967Z,2.35
2023-04-04T03:13:35.645Z,3.50
2023-04-04T03:16:04.761Z,2.08
2023-04-04T03:18:41.751Z,2.33
2023-04-04T03:21:08.296Z,2.05
2023-04-04T03:23:35.371Z,2.65
2023-04-04T03:26:02.185Z,2.88
2023-04-04T03:28:29.334Z,2.38
2023-04-04T03:30:56.633Z,2.85
2023-04-04T03:33:23.579Z,2.22
2023-04-04T03:35:50.194Z,2.50
2023-04-04T03:38:16.792Z,2.60
2023-04-04T03:40:44.085Z,2.50
2023-04-04T03:43:12.757Z,2.55
2023-04-04T03:45:40.866Z,2.70
2023-04-04T03:48:10.046Z,3.90
2023-04-04T03:50:37.584Z,3.13
2023-04-04T03:53:04.347Z,2.97
2023-04-04T03:55:31.139Z,2.35
2023-04-04T03:57:59.407Z,2.58
2023-04-04T04:00:27.023Z,2.90
2023-04-04T04:02:53.821Z,3.45
2023-04-04T04:05:20.456Z,3.40
2023-04-04T04:07:47.099Z,2.80
2023-04-04T04:10:17.011Z,2.97
2023-04-04T04:12:43.658Z,3.25
2023-04-04T04:15:11.134Z,2.60
2023-04-04T04:17:40.695Z,3.35
2023-04-04T04:20:09.526Z,2.30
2023-04-04T04:22:49.098Z,4.28
2023-04-04T04:25:16.472Z,3.38
2023-04-04T04:27:50.635Z,3.60
2023-04-04T04:30:20.910Z,4.88
2023-04-04T04:32:49.590Z,2.85
2023-04-04T04:35:18.493Z,3.83
2023-04-04T04:37:46.093Z,4.35
2023-04-04T04:40:14.971Z,2.33
2023-04-04T04:42:46.407Z,3.25
2023-04-04T04:45:16.619Z,3.58
2023-04-04T04:47:48.002Z,3.38
2023-04-04T04:50:17.916Z,3.33
2023-04-04T04:52:51.292Z,2.60
2023-04-04T04:55:18.518Z,3.30
2023-04-04T04:57:52.533Z,2.90
2023-04-04T05:00:23.481Z,2.88
2023-04-04T05:02:50.938Z,2.80
2023-04-04T05:05:24.953Z,3.00
2023-04-04T05:07:54.970Z,1.98
2023-04-04T05:10:21.583Z,3.15
2023-04-04T05:12:48.827Z,3.63
2023-04-04T05:15:21.954Z,2.65
2023-04-04T05:17:51.645Z,3.10
2023-04-04T05:20:18.277Z,2.67
2023-04-04T05:22:48.998Z,4.15
2023-04-04T05:25:22.027Z,6.18
2023-04-04T05:27:49.261Z,5.35
2023-04-04T05:30:19.144Z,6.60
2023-04-04T05:33:02.919Z,6.03
2023-04-04T05:35:31.348Z,8.48
2023-04-04T05:37:59.023Z,8.27
2023-04-04T05:40:25.795Z,8.30
2023-04-04T05:43:04.382Z,6.47
2023-04-04T05:48:07.789Z,8.93
2023-04-04T05:50:41.380Z,8.05
2023-04-04T05:53:08.588Z,5.25
2023-04-04T05:55:35.219Z,4.07
2023-04-04T05:58:02.642Z,7.25
2023-04-04T06:00:42.952Z,5.22
2023-04-04T06:03:10.124Z,6.68
2023-04-04T06:05:36.821Z,6.20
2023-04-04T06:08:03.436Z,7.07
2023-04-04T06:10:30.028Z,16.50
2023-04-04T06:12:56.812Z,8.98
2023-04-04T06:15:23.552Z,8.15
2023-04-04T06:17:50.833Z,7.35
2023-04-04T06:20:19.188Z,5.97
2023-04-04T06:22:46.601Z,5.35
2023-04-04T06:25:14.593Z,5.00
2023-04-04T06:27:41.624Z,5.68
2023-04-04T06:30:11.470Z,8.50
2023-04-04T06:32:38.959Z,5.40
2023-04-04T06:35:07.857Z,6.70
2023-04-04T06:37:48.779Z,4.85
2023-04-04T06:40:19.390Z,5.38
2023-04-04T06:42:51.340Z,7.80
2023-04-04T06:45:20.076Z,5.15
2023-04-04T06:47:46.789Z,6.13
2023-04-04T06:50:13.877Z,3.70
2023-04-04T06:52:40.543Z,6.63
2023-04-04T06:55:08.496Z,5.68
2023-04-04T06:57:36.339Z,4.88
2023-04-04T07:00:03.517Z,5.15
2023-04-04T07:02:30.484Z,4.68
2023-04-04T07:04:57.178Z,3.92
2023-04-04T07:07:24.624Z,3.90
2023-04-04T07:09:51.291Z,4.50
2023-04-04T07:12:17.849Z,4.53
2023-04-04T07:14:44.379Z,4.18
2023-04-04T07:17:21.818Z,3.78
2023-04-04T07:19:50.912Z,4.72
2023-04-04T07:22:17.499Z,3.95
2023-04-04T07:24:44.138Z,4.43
2023-04-04T07:27:11.306Z,4.22
2023-04-04T07:29:37.966Z,4.40
2023-04-04T07:32:04.637Z,3.03
2023-04-04T07:34:31.363Z,3.88
2023-04-04T07:36:57.937Z,3.80
2023-04-04T07:39:24.490Z,3.92
2023-04-04T07:41:51.070Z,3.58
2023-04-04T07:44:17.641Z,5.07
2023-04-04T07:46:46.324Z,3.13
2023-04-04T07:49:14.408Z,3.85
2023-04-04T07:51:41.605Z,3.08
2023-04-04T07:54:08.343Z,2.90
2023-04-04T07:56:35.007Z,4.18
2023-04-04T07:59:02.139Z,2.70
2023-04-04T08:01:28.888Z,2.95
2023-04-04T08:03:55.814Z,2.70
2023-04-04T08:06:22.554Z,4.30
2023-04-04T08:08:49.485Z,2.50
2023-04-04T08:11:16.482Z,4.07
2023-04-04T08:13:43.032Z,3.28
2023-04-04T08:16:09.754Z,1.83
2023-04-04T08:18:36.374Z,2.55
2023-04-04T08:21:03.179Z,2.42
2023-04-04T08:23:30.619Z,2.42
2023-04-04T08:25:59.881Z,3.83
2023-04-04T08:28:27.462Z,2.40
2023-04-04T08:30:55.054Z,2.78
2023-04-04T08:33:29.042Z,3.55
2023-04-04T08:36:01.122Z,2.97
2023-04-04T08:38:28.094Z,2.17
2023-04-04T08:40:54.814Z,2.30
2023-04-04T08:43:21.648Z,2.92
2023-04-04T08:45:49.219Z,2.00
2023-04-04T08:48:16.532Z,2.33
2023-04-04T08:50:43.683Z,1.83
2023-04-04T08:53:11.818Z,2.65
2023-04-04T08:55:39.149Z,1.77
2023-04-04T08:58:06.075Z,2.17
2023-04-04T09:00:32.933Z,3.08
2023-04-04T09:03:10.269Z,2.63
2023-04-04T09:05:37.433Z,2.40
2023-04-04T09:08:07.030Z,2.47
2023-04-04T09:10:34.451Z,2.10
2023-04-04T09:13:15.006Z,1.98
2023-04-04T09:15:47.093Z,2.28
2023-04-04T09:18:13.696Z,2.38
2023-04-04T09:20:47.524Z,4.55
2023-04-04T09:23:16.177Z,2.72
2023-04-04T09:28:21.657Z,2.60
2023-04-04T09:30:49.170Z,3.13
2023-04-04T09:33:17.070Z,2.05
2023-04-04T09:35:52.529Z,2.15
2023-04-04T09:38:21.284Z,2.10
2023-04-04T09:40:48.221Z,3.85
2023-04-04T09:43:15.417Z,1.83
2023-04-04T09:45:45.125Z,2.80
2023-04-04T09:48:12.101Z,1.30
2023-04-04T09:50:46.166Z,1.55
2023-04-04T09:53:19.539Z,2.35
2023-04-04T09:55:56.544Z,1.77
2023-04-04T09:58:27.929Z,2.35
2023-04-04T10:00:56.206Z,1.77
2023-04-04T10:03:24.156Z,2.47
2023-04-04T10:06:00.119Z,3.17
2023-04-04T10:08:28.771Z,1.65
2023-04-04T10:11:09.672Z,2.63
2023-04-04T10:13:40.993Z,2.15
2023-04-04T10:16:08.929Z,2.05
2023-04-04T10:18:36.749Z,1.58
2023-04-04T10:21:15.263Z,1.70
2023-04-04T10:23:44.049Z,3.45
2023-04-04T10:26:12.775Z,1.30
2023-04-04T10:28:40.217Z,2.38
2023-04-04T10:31:20.358Z,2.80
2023-04-04T10:34:09.460Z,3.88
2023-04-04T10:36:45.564Z,1.95
2023-04-04T10:39:23.853Z,2.08
2023-04-04T10:41:52.108Z,2.13
2023-04-04T10:44:39.968Z,1.60
2023-04-04T10:47:24.153Z,1.60
2023-04-04T10:49:51.574Z,2.47
2023-04-04T10:52:22.968Z,1.67
2023-04-04T10:54:51.135Z,1.63
2023-04-04T10:57:18.071Z,2.47
2023-04-04T11:00:01.348Z,2.35
2023-04-04T11:03:01.114Z,3.75
2023-04-04T11:05:32.927Z,1.50
2023-04-04T11:08:08.531Z,1.50
2023-04-04T11:10:41.657Z,2.90
2023-04-04T11:13:22.689Z,2.00
2023-04-04T11:15:56.670Z,2.15
2023-04-04T11:18:43.745Z,2.10
2023-04-04T11:21:20.040Z,2.95
2023-04-04T11:23:50.004Z,2.35
2023-04-04T11:26:26.492Z,2.30
2023-04-04T11:29:00.346Z,1.75
2023-04-04T11:31:35.289Z,2.17
2023-04-04T11:34:12.277Z,2.67
2023-04-04T11:36:49.012Z,3.05
2023-04-04T11:39:22.878Z,2.08
2023-04-04T11:41:57.502Z,1.80
2023-04-04T11:44:29.448Z,3.63
2023-04-04T11:47:19.329Z,2.50
2023-04-04T11:49:49.734Z,2.33
2023-04-04T11:52:20.312Z,1.40
2023-04-04T11:54:48.028Z,1.90
2023-04-04T11:57:16.466Z,2.42
2023-04-04T11:59:45.565Z,2.08
2023-04-04T12:02:17.037Z,2.33
2023-04-04T12:04:46.568Z,2.90
2023-04-04T12:07:16.510Z,1.60
2023-04-04T12:09:43.804Z,2.08
2023-04-04T12:12:14.483Z,1.90
2023-04-04T12:14:41.322Z,2.17
2023-04-04T12:17:08.137Z,2.10
2023-04-04T12:19:39.040Z,2.20
2023-04-04T12:22:07.990Z,3.28
2023-04-04T12:24:36.925Z,3.95
2023-04-04T12:27:04.017Z,1.83
2023-04-04T12:29:36.328Z,3.40
2023-04-04T12:32:04.353Z,2.35
2023-04-04T12:34:33.754Z,2.75
2023-04-04T12:37:02.594Z,2.20
2023-04-04T12:39:30.070Z,2.17
2023-04-04T12:42:02.522Z,2.35
2023-04-04T12:44:34.804Z,2.38
2023-04-04T12:47:04.757Z,2.10
2023-04-04T12:49:34.479Z,2.08
2023-04-04T12:52:04.653Z,3.10
2023-04-04T12:54:38.885Z,2.13
2023-04-04T12:57:07.524Z,2.00
2023-04-04T12:59:36.145Z,1.77
2023-04-04T13:02:06.177Z,2.05
2023-04-04T13:04:33.534Z,2.47
2023-04-04T13:07:04.199Z,2.50
2023-04-04T13:09:30.902Z,3.22
2023-04-04T13:12:02.037Z,2.33
2023-04-04T13:14:49.428Z,2.33
2023-04-04T13:17:16.115Z,2.60
2023-04-04T13:19:42.734Z,1.60
2023-04-04T13:22:09.565Z,2.75
2023-04-04T13:24:36.213Z,3.55
2023-04-04T13:27:02.869Z,1.90
2023-04-04T13:29:29.531Z,4.32
2023-04-04T13:31:56.605Z,3.10
2023-04-04T13:34:27.304Z,2.72
2023-04-04T13:36:54.174Z,2.80
2023-04-04T13:39:23.337Z,3.40
2023-04-04T13:41:50.322Z,2.00
2023-04-04T13:44:16.975Z,2.38
2023-04-04T13:46:43.925Z,3.22
2023-04-04T13:49:11.158Z,2.50
2023-04-04T13:51:38.364Z,3.58
2023-04-04T13:54:05.192Z,3.42
2023-04-04T13:56:31.802Z,2.47
2023-04-04T13:58:58.507Z,2.85
2023-04-04T14:01:25.212Z,2.25
2023-04-04T14:03:52.096Z,3.33
2023-04-04T14:06:18.811Z,2.00
2023-04-04T14:08:46.694Z,2.28
2023-04-04T14:11:13.971Z,1.90
2023-04-04T14:13:40.643Z,4.00
2023-04-04T14:16:08.564Z,2.72
2023-04-04T14:18:35.370Z,2.22
2023-04-04T14:21:03.208Z,2.67
2023-04-04T14:23:32.687Z,1.92
2023-04-04T14:25:59.451Z,2.42
2023-04-04T14:28:26.136Z,1.90
2023-04-04T14:30:52.820Z,2.60
2023-04-04T14:33:19.607Z,2.20
2023-04-04T14:35:46.248Z,4.38
2023-04-04T14:38:12.881Z,2.50
2023-04-04T14:40:40.222Z,2.67
2023-04-04T14:43:07.796Z,2.28
2023-04-04T14:45:34.704Z,3.38
2023-04-04T14:48:01.544Z,1.70
2023-04-04T14:50:28.410Z,3.85
2023-04-04T14:52:56.608Z,2.10
2023-04-04T14:55:23.635Z,1.85
2023-04-04T15:00:21.033Z,2.33
2023-04-04T15:02:47.899Z,2.70
2023-04-04T15:05:18.380Z,2.00
2023-04-04T15:07:46.201Z,2.95
2023-04-04T15:10:13.276Z,2.03
2023-04-04T15:12:40.152Z,1.67
2023-04-04T15:15:07.363Z,4.32
2023-04-04T15:17:34.079Z,3.03
2023-04-04T15:20:00.888Z,2.28
2023-04-04T15:22:27.553Z,3.00
2023-04-04T15:24:56.047Z,2.72
2023-04-04T15:27:22.675Z,2.63
2023-04-04T15:29:49.397Z,2.55
2023-04-04T15:32:16.057Z,4.88
2023-04-04T15:34:42.751Z,3.05
2023-04-04T15:37:09.737Z,1.92
2023-04-04T15:39:46.011Z,2.22
2023-04-04T15:42:18.908Z,2.22
2023-04-04T15:44:45.540Z,2.65
2023-04-04T15:47:12.210Z,2.15
2023-04-04T15:49:38.883Z,4.43
2023-04-04T15:52:05.731Z,2.10
2023-04-04T15:54:32.434Z,2.83
2023-04-04T15:56:59.286Z,4.20
2023-04-04T15:59:26.415Z,2.17
2023-04-04T16:01:53.296Z,3.00
2023-04-04T16:04:19.960Z,2.63
2023-04-04T16:06:46.595Z,2.40
2023-04-04T16:09:13.261Z,2.65
2023-04-04T16:11:39.988Z,2.55
2023-04-04T16:14:09.260Z,2.47
2023-04-04T16:16:36.564Z,2.13
2023-04-04T16:19:03.441Z,2.30
2023-04-04T16:21:31.065Z,2.55
2023-04-04T16:23:57.727Z,2.67
2023-04-04T16:26:24.550Z,2.90
2023-04-04T16:28:51.215Z,2.17
2023-04-04T16:31:17.946Z,2.17
2023-04-04T16:33:44.652Z,3.17
2023-04-04T16:36:11.853Z,3.83
2023-04-04T16:38:38.543Z,2.58
2023-04-04T16:41:05.305Z,2.33
2023-04-04T16:43:31.878Z,2.13
2023-04-04T16:45:58.712Z,4.07
2023-04-04T16:48:25.405Z,4.95
2023-04-04T16:50:52.090Z,2.00
2023-04-04T16:53:18.763Z,2.20
2023-04-04T16:55:45.447Z,4.03
2023-04-04T16:58:12.685Z,2.95
2023-04-04T17:00:39.533Z,2.38
2023-04-04T17:03:06.609Z,3.28
2023-04-04T17:05:33.257Z,2.00
2023-04-04T17:07:59.884Z,2.22
2023-04-04T17:10:26.781Z,4.93
2023-04-04T17:12:53.520Z,2.58
2023-04-04T17:15:20.142Z,2.60
2023-04-04T17:17:47.000Z,3.05
2023-04-04T17:20:17.828Z,4.38
2023-04-04T17:22:45.559Z,3.53
2023-04-04T17:25:12.277Z,3.70
2023-04-04T17:27:39.007Z,3.67
2023-04-04T17:30:08.363Z,3.38
2023-04-04T17:32:35.036Z,3.10
2023-04-04T17:35:01.725Z,3.45
2023-04-04T17:37:29.173Z,4.57
2023-04-04T17:39:55.931Z,3.38
2023-04-04T17:42:22.575Z,3.55
2023-04-04T17:44:49.204Z,4.25
2023-04-04T17:47:16.154Z,2.78
2023-04-04T17:49:42.905Z,2.10
2023-04-04T17:52:10.155Z,2.85
2023-04-04T17:54:36.853Z,2.92
2023-04-04T17:57:03.565Z,3.33
2023-04-04T17:59:30.320Z,2.92
2023-04-04T18:01:57.319Z,4.68
2023-04-04T18:04:25.466Z,2.63
2023-04-04T18:06:52.382Z,3.03
2023-04-04T18:09:19.058Z,3.03
2023-04-04T18:11:45.740Z,2.17
2023-04-04T18:14:12.336Z,2.60
2023-04-04T18:16:40.958Z,3.95
2023-04-04T18:19:16.656Z,2.65
2023-04-04T18:21:43.421Z,3.00
2023-04-04T18:24:11.871Z,3.22
2023-04-04T18:26:38.823Z,2.65
2023-04-04T18:29:06.325Z,3.83
2023-04-04T18:31:33.332Z,4.30
2023-04-04T18:34:00.835Z,4.30
2023-04-04T18:36:28.032Z,5.80
2023-04-04T18:38:54.748Z,5.93
2023-04-04T18:41:21.816Z,7.07
2023-04-04T18:43:48.499Z,8.32
2023-04-04T18:46:15.474Z,10.75
2023-04-04T18:48:42.229Z,15.48
2023-04-04T18:51:09.116Z,23.50
2023-04-04T18:53:35.688Z,17.30
2023-04-04T18:56:02.437Z,24.13
2023-04-04T18:58:29.092Z,30.58
2023-04-04T19:00:58.456Z,31.30
2023-04-04T19:03:28.697Z,33.22
2023-04-04T19:05:58.305Z,29.10
2023-04-04T19:08:25.606Z,26.25
2023-04-04T19:10:52.247Z,29.27
2023-04-04T19:13:18.814Z,28.15
2023-04-04T19:15:45.689Z,26.85
2023-04-04T19:18:12.581Z,25.83
2023-04-04T19:20:42.027Z,35.22
2023-04-04T19:23:08.760Z,46.10
2023-04-04T19:25:35.384Z,45.92
2023-04-04T19:28:02.609Z,46.58
2023-04-04T19:30:49.497Z,45.28
2023-04-04T19:33:18.118Z,39.78
2023-04-04T19:36:11.746Z,36.22
2023-04-04T19:38:45.298Z,33.22
2023-04-04T19:41:23.958Z,35.15
2023-04-04T19:43:50.739Z,39.25
2023-04-04T19:46:24.467Z,26.13
2023-04-04T19:48:55.700Z,25.45
2023-04-04T19:51:22.261Z,24.20
2023-04-04T19:53:50.620Z,20.40
2023-04-04T19:56:19.420Z,21.58
2023-04-04T19:58:48.199Z,17.23
2023-04-04T20:01:20.900Z,16.42
2023-04-04T20:03:48.163Z,18.60
2023-04-04T20:06:24.532Z,14.25
2023-04-04T20:08:52.113Z,15.07
2023-04-04T20:11:31.463Z,13.55
2023-04-04T20:14:02.181Z,9.75
2023-04-04T20:16:29.921Z,13.63
2023-04-04T20:18:58.341Z,11.77
2023-04-04T20:21:27.335Z,12.68
2023-04-04T20:23:56.196Z,11.05
2023-04-04T20:26:35.117Z,10.90
2023-04-04T20:29:13.711Z,10.77
2023-04-04T20:31:48.766Z,8.90
2023-04-04T20:34:36.418Z,8.10
2023-04-04T20:37:07.290Z,10.27
2023-04-04T20:39:46.068Z,8.25
2023-04-04T20:42:28.081Z,8.15
2023-04-04T20:44:56.037Z,10.93
2023-04-04T20:47:42.758Z,8.50
2023-04-04T20:50:18.983Z,8.23
2023-04-04T20:52:53.437Z,9.63
2023-04-04T20:55:21.027Z,8.73
2023-04-04T20:57:47.987Z,6.72
2023-04-04T21:00:30.173Z,7.97
2023-04-04T21:03:00.760Z,6.72
2023-04-04T21:05:34.235Z,7.35
2023-04-04T21:08:01.737Z,8.13
2023-04-04T21:10:28.509Z,8.73
2023-04-04T21:12:57.556Z,6.95
2023-04-04T21:15:29.417Z,8.80
2023-04-04T21:17:58.599Z,7.90
2023-04-04T21:20:46.850Z,8.70
2023-04-04T21:23:26.128Z,7.88
2023-04-04T21:26:02.958Z,7.95
2023-04-04T21:28:33.289Z,8.00
2023-04-04T21:31:00.513Z,13.10
2023-04-04T21:33:27.226Z,8.75
2023-04-04T21:35:55.031Z,9.00
2023-04-04T21:38:33.146Z,7.80
2023-04-04T21:41:07.775Z,9.55
2023-04-04T21:43:34.307Z,9.55
2023-04-04T21:46:00.980Z,7.20
2023-04-04T21:48:27.568Z,8.75
2023-04-04T21:50:54.154Z,8.88
2023-04-04T21:53:22.250Z,8.75
2023-04-04T21:55:48.871Z,7.40
2023-04-04T21:58:15.670Z,7.88
2023-04-04T22:00:42.808Z,7.72
2023-04-04T22:03:09.589Z,8.30
2023-04-04T22:05:39.356Z,6.57
2023-04-04T22:08:06.689Z,6.53
2023-04-04T22:10:33.571Z,6.57
2023-04-04T22:13:01.681Z,7.38
2023-04-04T22:15:29.351Z,8.63
2023-04-04T22:18:03.560Z,8.48
2023-04-04T22:20:33.341Z,9.98
2023-04-04T22:23:00.007Z,9.48
2023-04-04T22:25:27.325Z,8.40
2023-04-04T22:27:54.003Z,6.20
2023-04-04T22:30:21.834Z,6.93
2023-04-04T22:32:48.583Z,6.68
2023-04-04T22:35:15.260Z,7.95
2023-04-04T22:37:42.080Z,6.30
2023-04-04T22:40:13.159Z,6.75
2023-04-04T22:42:39.793Z,6.18
2023-04-04T22:45:06.946Z,7.70
2023-04-04T22:47:33.617Z,7.35
2023-04-04T22:50:04.645Z,6.55
2023-04-04T22:52:32.150Z,5.90
2023-04-04T22:54:59.593Z,6.15
2023-04-04T22:57:26.235Z,5.78
2023-04-04T22:59:52.853Z,6.13
2023-04-04T23:02:19.408Z,6.57
2023-04-04T23:04:46.079Z,5.60
2023-04-04T23:07:12.724Z,6.00
2023-04-04T23:09:39.352Z,4.30
2023-04-04T23:12:06.499Z,7.00
2023-04-04T23:14:38.664Z,5.65
2023-04-04T23:17:06.873Z,5.63
2023-04-04T23:19:33.442Z,4.43
2023-04-04T23:22:00.017Z,5.93
2023-04-04T23:24:26.635Z,5.93
2023-04-04T23:26:53.295Z,6.10
2023-04-04T23:29:19.852Z,5.25
2023-04-04T23:31:46.658Z,4.97
2023-04-04T23:34:13.324Z,5.22
2023-04-04T23:36:39.919Z,5.32
2023-04-04T23:39:07.240Z,6.22
2023-04-04T23:41:33.908Z,6.45
2023-04-04T23:44:01.013Z,5.63
2023-04-04T23:46:30.205Z,5.60
2023-04-04T23:48:57.022Z,5.43
2023-04-04T23:51:25.718Z,5.45
2023-04-04T23:53:52.603Z,4.57
2023-04-04T23:56:19.161Z,6.05
2023-04-04T23:58:45.747Z,5.72
